Time;durP1;ratioP1;P1;durP2;ratioP2;P2;SDS_P1;SDS_P2;PMS_P1;PMS_P2;Temp;Humidity;BMP_temperature;BMP_pressure;BME280_temperature;BME280_humidity;BME280_pressure;Samples;Min_cycle;Max_cycle;Signal;HPM_P1;HPM_P2
2023/01/15 00:01:28;;;;;;;17.15;1.45;;;6.00;99.90;;;;;;5074585;28;20053;-73
2023/01/15 00:03:55;;;;;;;15.95;1.60;;;6.10;99.90;;;;;;5076376;28;20131;-72
2023/01/15 00:06:22;;;;;;;24.30;1.70;;;6.10;99.90;;;;;;5075017;28;20088;-72
2023/01/15 00:08:48;;;;;;;16.13;1.60;;;6.10;99.90;;;;;;5076430;28;20426;-72
2023/01/15 00:11:14;;;;;;;16.77;1.27;;;6.10;99.90;;;;;;5074554;28;20461;-72
2023/01/15 00:13:41;;;;;;;16.65;1.95;;;6.00;99.90;;;;;;5075536;28;20049;-73
2023/01/15 00:16:21;;;;;;;21.52;1.48;;;6.00;99.90;;;;;;5075824;28;20056;-73
2023/01/15 00:18:51;;;;;;;12.77;1.52;;;6.00;99.90;;;;;;5075556;28;20094;-72
2023/01/15 00:21:18;;;;;;;20.80;1.52;;;6.00;99.90;;;;;;5076105;28;20458;-73
2023/01/15 00:29:16;;;;;;;16.50;1.38;;;5.90;99.90;;;;;;5075909;28;20115;-72
2023/01/15 00:31:43;;;;;;;27.60;3.15;;;5.90;99.90;;;;;;5075612;28;20067;-72
2023/01/15 00:34:09;;;;;;;24.20;1.95;;;5.90;99.90;;;;;;5057066;28;20052;-73
2023/01/15 00:36:36;;;;;;;28.13;1.52;;;5.90;99.90;;;;;;5056947;28;20374;-72
2023/01/15 00:39:03;;;;;;;20.60;1.38;;;5.90;99.90;;;;;;5073976;28;20056;-72
2023/01/15 00:41:29;;;;;;;21.75;1.67;;;5.90;99.90;;;;;;5073291;28;20048;-72
2023/01/15 00:43:56;;;;;;;21.27;1.77;;;5.80;99.90;;;;;;5073067;28;20037;-72
2023/01/15 00:46:21;;;;;;;24.67;2.08;;;5.90;99.90;;;;;;5074408;28;20052;-72
2023/01/15 00:48:47;;;;;;;16.30;1.10;;;5.90;99.90;;;;;;5056969;28;20044;-73
2023/01/15 00:51:13;;;;;;;15.23;1.27;;;5.90;99.90;;;;;;5056726;28;20440;-73
2023/01/15 00:53:39;;;;;;;19.45;1.48;;;5.90;99.90;;;;;;5056476;28;20048;-73
2023/01/15 00:56:05;;;;;;;29.85;2.15;;;5.90;99.90;;;;;;5074239;28;20041;-72
2023/01/15 00:58:30;;;;;;;20.40;1.33;;;5.90;99.90;;;;;;5073440;28;20511;-71
2023/01/15 01:00:59;;;;;;;21.67;1.85;;;5.90;99.90;;;;;;5056520;28;20060;-74
2023/01/15 01:03:25;;;;;;;20.65;1.30;;;5.80;99.90;;;;;;5074235;28;20040;-72
2023/01/15 01:05:51;;;;;;;17.63;1.27;;;5.80;99.90;;;;;;5074058;28;20512;-73
2023/01/15 01:08:17;;;;;;;32.00;1.20;;;5.80;99.90;;;;;;5072813;28;20282;-72
2023/01/15 01:10:43;;;;;;;18.80;1.33;;;5.80;99.90;;;;;;5056273;28;20044;-72
2023/01/15 01:13:09;;;;;;;25.00;1.40;;;5.90;99.90;;;;;;5073885;28;20037;-72
2023/01/15 01:15:36;;;;;;;19.17;1.42;;;5.90;99.90;;;;;;5072343;28;20106;-75
2023/01/15 01:18:03;;;;;;;17.08;2.00;;;5.90;99.90;;;;;;5072639;28;20128;-73
2023/01/15 01:20:29;;;;;;;20.40;1.60;;;5.90;99.90;;;;;;5056216;28;20052;-73
2023/01/15 01:22:55;;;;;;;27.33;1.90;;;5.90;99.90;;;;;;5072886;28;20129;-73
2023/01/15 01:25:21;;;;;;;13.65;1.02;;;5.90;99.90;;;;;;5072520;28;20040;-73
2023/01/15 01:27:47;;;;;;;17.88;1.23;;;5.90;99.90;;;;;;5072917;28;20094;-73
2023/01/15 01:30:13;;;;;;;27.33;1.60;;;5.90;99.90;;;;;;5073668;28;20045;-73
2023/01/15 01:32:42;;;;;;;19.50;1.48;;;5.90;99.90;;;;;;5071989;28;20102;-74
2023/01/15 01:35:08;;;;;;;24.15;1.80;;;5.90;99.90;;;;;;5073537;28;20041;-73
2023/01/15 01:37:34;;;;;;;23.30;1.42;;;5.90;99.90;;;;;;5073543;28;20044;-74
2023/01/15 01:40:00;;;;;;;26.65;1.60;;;5.80;99.90;;;;;;5055790;28;20374;-73
2023/01/15 01:42:26;;;;;;;26.58;1.45;;;5.80;99.90;;;;;;5072258;28;20048;-73
2023/01/15 01:44:51;;;;;;;21.08;2.00;;;5.90;99.90;;;;;;5073260;28;20044;-73
2023/01/15 01:47:24;;;;;;;21.98;1.20;;;5.90;99.90;;;;;;5072182;28;20090;-74
2023/01/15 01:50:00;;;;;;;22.27;1.70;;;5.90;99.90;;;;;;5073291;28;20193;-74
2023/01/15 01:52:36;;;;;;;25.85;1.48;;;5.90;99.90;;;;;;5072115;28;20068;-72
2023/01/15 01:55:04;;;;;;;19.02;1.63;;;5.80;99.90;;;;;;5074042;28;20044;-73
2023/01/15 01:57:30;;;;;;;22.60;1.63;;;5.90;99.90;;;;;;5073245;28;20052;-73
2023/01/15 01:59:58;;;;;;;19.98;1.77;;;5.90;99.90;;;;;;5089441;28;20048;-73
2023/01/15 02:02:24;;;;;;;21.00;1.10;;;5.90;99.90;;;;;;5073244;28;20048;-72
2023/01/15 02:04:50;;;;;;;29.33;1.77;;;5.80;99.90;;;;;;5072056;28;20147;-72
2023/01/15 02:07:16;;;;;;;32.22;2.28;;;5.80;99.90;;;;;;5055484;28;20048;-73
2023/01/15 02:09:43;;;;;;;21.73;1.17;;;5.80;99.90;;;;;;5074784;28;20060;-73
2023/01/15 02:12:39;;;;;;;26.77;1.58;;;5.80;99.90;;;;;;5079856;28;20388;-73
2023/01/15 02:15:12;;;;;;;;;;;5.70;99.90;;;;;;5078921;28;20056;-72
2023/01/15 02:18:05;;;;;;;19.30;1.40;;;5.80;99.90;;;;;;5061472;28;20357;-73
2023/01/15 02:20:39;;;;;;;23.20;1.83;;;5.80;99.90;;;;;;5062974;28;20103;-72
2023/01/15 02:23:10;;;;;;;20.52;1.65;;;5.80;99.90;;;;;;5079961;28;20045;-72
2023/01/15 02:26:00;;;;;;;35.08;1.95;;;5.80;99.90;;;;;;5079604;28;20059;-73
2023/01/15 02:28:31;;;;;;;19.52;1.35;;;5.80;99.90;;;;;;5078217;28;20045;-72
2023/01/15 02:31:22;;;;;;;22.52;1.55;;;5.80;99.90;;;;;;5079487;28;20045;-73
2023/01/15 02:33:58;;;;;;;24.58;2.33;;;5.80;99.90;;;;;;5078598;28;20060;-74
2023/01/15 02:36:27;;;;;;;31.48;2.55;;;5.80;99.90;;;;;;5079345;28;20123;-73
2023/01/15 02:38:56;;;;;;;23.95;1.85;;;5.80;99.90;;;;;;5078506;28;20084;-73
2023/01/15 02:41:27;;;;;;;23.38;1.60;;;5.80;99.90;;;;;;5078417;28;20127;-72
2023/01/15 02:43:56;;;;;;;26.48;1.98;;;5.90;99.90;;;;;;5079482;28;20087;-71
2023/01/15 02:46:26;;;;;;;30.77;1.60;;;5.80;99.90;;;;;;5079521;28;20431;-73
2023/01/15 02:48:55;;;;;;;27.50;1.60;;;5.80;99.90;;;;;;5080017;28;20161;-72
2023/01/15 02:51:25;;;;;;;30.63;1.70;;;5.80;99.90;;;;;;5078262;28;20412;-72
2023/01/15 02:53:54;;;;;;;27.48;1.63;;;5.80;99.90;;;;;;5079399;28;20083;-73
2023/01/15 02:56:23;;;;;;;27.20;1.80;;;5.80;99.90;;;;;;5079236;28;20048;-73
2023/01/15 02:58:54;;;;;;;18.88;1.40;;;5.80;99.90;;;;;;5078243;28;20055;-73
2023/01/15 03:01:33;;;;;;;25.42;1.58;;;5.80;99.90;;;;;;5062046;28;20060;-73
2023/01/15 03:04:25;;;;;;;26.92;1.42;;;5.80;99.90;;;;;;5062396;28;20056;-73
2023/01/15 03:07:06;;;;;;;30.27;1.88;;;5.70;99.90;;;;;;5078973;28;20489;-73
2023/01/15 03:09:34;;;;;;;21.77;2.08;;;5.70;99.90;;;;;;5079146;28;20048;-73
2023/01/15 03:12:15;;;;;;;29.77;1.92;;;5.70;99.90;;;;;;5077999;28;20052;-72
2023/01/15 03:14:55;;;;;;;30.08;2.78;;;5.80;99.90;;;;;;5112727;28;20056;-73
2023/01/15 03:17:28;;;;;;;19.08;1.58;;;5.80;99.90;;;;;;5079388;28;20090;-72
2023/01/15 03:20:04;;;;;;;20.80;1.48;;;5.80;99.90;;;;;;5079005;28;20040;-71
2023/01/15 03:22:33;;;;;;;25.48;1.67;;;5.70;99.90;;;;;;5076093;28;20111;-72
2023/01/15 03:25:07;;;;;;;29.45;3.15;;;5.70;99.90;;;;;;5075137;28;20444;-72
2023/01/15 03:27:33;;;;;;;20.80;1.65;;;5.70;99.90;;;;;;5076084;28;20048;-71
2023/01/15 03:30:21;;;;;;;35.40;2.05;;;5.70;99.90;;;;;;5075924;28;20070;-73
2023/01/15 03:32:47;;;;;;;25.15;1.45;;;5.70;99.90;;;;;;5075641;28;20555;-72
2023/01/15 03:35:51;;;;;;;29.15;2.10;;;5.70;99.90;;;;;;5074559;28;20040;-73
2023/01/15 03:38:21;;;;;;;23.25;3.08;;;5.60;99.90;;;;;;5106407;28;20059;-71
2023/01/15 03:41:10;;;;;;;30.92;1.40;;;5.60;99.90;;;;;;5074878;28;20095;-72
2023/01/15 03:44:06;;;;;;;20.55;1.45;;;5.60;99.90;;;;;;5076312;28;20047;-73
2023/01/15 03:46:52;;;;;;;20.77;1.50;;;5.50;99.90;;;;;;5075717;28;20054;-71
2023/01/15 03:49:46;;;;;;;32.78;2.45;;;5.50;99.90;;;;;;5076596;28;20385;-72
2023/01/15 03:52:29;;;;;;;23.48;1.70;;;5.60;99.90;;;;;;5075570;28;20040;-72
2023/01/15 03:55:03;;;;;;;28.20;2.22;;;5.60;99.90;;;;;;5058099;28;20060;-72
2023/01/15 03:57:37;;;;;;;29.23;2.50;;;5.50;99.90;;;;;;5074272;28;20055;-72
2023/01/15 04:00:28;;;;;;;29.40;2.50;;;5.50;99.90;;;;;;5075492;28;20044;-72
2023/01/15 04:02:56;;;;;;;22.30;1.83;;;5.50;99.90;;;;;;5066673;28;20056;-72
2023/01/15 04:05:24;;;;;;;29.15;2.63;;;5.50;99.90;;;;;;5075751;28;20044;-72
2023/01/15 04:07:51;;;;;;;26.35;1.90;;;5.50;99.90;;;;;;5075092;28;20060;-73
2023/01/15 04:10:17;;;;;;;24.88;1.67;;;5.40;99.90;;;;;;5073997;28;20056;-71
2023/01/15 04:12:43;;;;;;;30.10;2.25;;;5.50;99.90;;;;;;5073955;28;20049;-72
2023/01/15 04:15:11;;;;;;;31.20;2.85;;;5.50;99.90;;;;;;5075106;28;20051;-72
2023/01/15 04:17:37;;;;;;;22.75;1.73;;;5.50;99.90;;;;;;5073841;28;20048;-72
2023/01/15 04:20:05;;;;;;;28.20;1.60;;;5.60;99.90;;;;;;5073983;28;20063;-72
2023/01/15 04:22:31;;;;;;;47.72;1.92;;;5.60;99.90;;;;;;5074764;28;20048;-72
2023/01/15 04:24:57;;;;;;;33.55;2.22;;;5.60;99.90;;;;;;5073697;28;20395;-71
2023/01/15 04:27:22;;;;;;;31.25;1.85;;;5.60;99.90;;;;;;5074516;28;20404;-72
2023/01/15 04:29:48;;;;;;;28.85;2.75;;;5.60;99.90;;;;;;5074149;28;20048;-71
2023/01/15 04:32:14;;;;;;;26.88;2.63;;;5.60;99.90;;;;;;5075240;28;20052;-71
2023/01/15 04:34:40;;;;;;;39.03;3.40;;;5.50;99.90;;;;;;5074707;28;20067;-71
2023/01/15 04:37:05;;;;;;;27.25;1.30;;;5.50;99.90;;;;;;5074386;28;20048;-71
2023/01/15 04:39:32;;;;;;;28.67;1.98;;;5.50;99.90;;;;;;5073441;28;20048;-70
2023/01/15 04:44:41;;;;;;;19.15;1.00;;;5.50;99.90;;;;;;5074993;28;20044;-71
2023/01/15 04:47:07;;;;;;;26.30;2.85;;;5.60;99.90;;;;;;5074102;28;20044;-71
2023/01/15 04:49:34;;;;;;;16.65;1.65;;;5.60;99.90;;;;;;5073120;28;20051;-71
2023/01/15 04:51:59;;;;;;;24.03;1.47;;;5.60;99.90;;;;;;5056725;28;20056;-71
2023/01/15 04:54:25;;;;;;;24.10;1.20;;;5.60;99.90;;;;;;5074262;28;20044;-71
2023/01/15 04:56:53;;;;;;;30.58;2.25;;;5.60;99.90;;;;;;5074791;28;20044;-72
2023/01/15 04:59:24;;;;;;;20.00;1.98;;;5.60;99.90;;;;;;5056576;28;20080;-71
2023/01/15 05:01:50;;;;;;;24.23;1.30;;;5.60;99.90;;;;;;5056547;28;20040;-72
2023/01/15 05:04:16;;;;;;;22.73;1.80;;;5.60;99.90;;;;;;5072932;28;20040;-71
2023/01/15 05:06:42;;;;;;;18.27;1.88;;;5.70;99.90;;;;;;5074091;28;20072;-71
2023/01/15 05:09:07;;;;;;;26.00;2.17;;;5.60;99.90;;;;;;5074455;28;20049;-72
2023/01/15 05:11:35;;;;;;;22.00;1.70;;;5.60;99.90;;;;;;5072775;28;20048;-71
2023/01/15 05:14:01;;;;;;;26.70;1.65;;;5.60;99.90;;;;;;5072397;28;20492;-71
2023/01/15 05:16:28;;;;;;;16.20;1.33;;;5.50;99.90;;;;;;5072093;28;20060;-71
2023/01/15 05:18:58;;;;;;;27.60;2.47;;;5.50;99.90;;;;;;5073123;28;20049;-71
2023/01/15 05:21:30;;;;;;;22.63;1.40;;;5.40;99.90;;;;;;5072568;28;20041;-71
2023/01/15 05:23:59;;;;;;;21.52;1.67;;;5.40;99.90;;;;;;5073553;28;20378;-71
2023/01/15 05:26:25;;;;;;;25.98;1.98;;;5.40;99.90;;;;;;5074193;28;20064;-71
2023/01/15 05:28:56;;;;;;;20.00;1.63;;;5.40;99.90;;;;;;5072445;28;20056;-72
2023/01/15 05:31:23;;;;;;;22.55;1.42;;;5.40;99.90;;;;;;5072693;28;20048;-71
2023/01/15 05:33:50;;;;;;;28.60;2.22;;;5.40;99.90;;;;;;5072197;28;20507;-71
2023/01/15 05:36:21;;;;;;;19.92;1.20;;;5.40;99.90;;;;;;5056191;28;20423;-71
2023/01/15 05:38:47;;;;;;;22.58;1.60;;;5.50;99.90;;;;;;5056525;28;20055;-71
2023/01/15 05:44:06;;;;;;;15.98;1.35;;;5.50;99.90;;;;;;5074126;28;20041;-70
2023/01/15 05:46:33;;;;;;;13.77;1.27;;;5.40;99.90;;;;;;5072314;28;20044;-70
2023/01/15 05:49:01;;;;;;;18.52;1.60;;;5.40;99.90;;;;;;5073455;28;20044;-71
2023/01/15 05:51:26;;;;;;;;;;;5.30;99.90;;;;;;5073065;28;20051;-71
2023/01/15 05:53:52;;;;;;;17.60;0.95;;;5.30;99.90;;;;;;5073451;28;20019;-71
2023/01/15 05:56:18;;;;;;;18.35;1.20;;;5.30;99.90;;;;;;5072101;28;20040;-71
2023/01/15 05:58:43;;;;;;;15.55;0.88;;;5.30;99.90;;;;;;5073168;28;20126;-70
2023/01/15 06:01:10;;;;;;;19.35;1.00;;;5.30;99.90;;;;;;5072026;28;20409;-72
2023/01/15 06:03:36;;;;;;;18.25;1.20;;;5.30;99.90;;;;;;5073248;28;20047;-71
2023/01/15 06:06:03;;;;;;;21.00;0.90;;;5.20;99.90;;;;;;5073237;28;20098;-70
2023/01/15 06:08:29;;;;;;;19.90;1.40;;;5.10;99.90;;;;;;5073253;28;20051;-70
2023/01/15 06:10:55;;;;;;;17.67;1.17;;;5.00;99.90;;;;;;5055462;28;20041;-70
2023/01/15 06:13:21;;;;;;;27.42;2.17;;;5.10;99.90;;;;;;5038490;28;20064;-72
2023/01/15 06:15:46;;;;;;;22.83;1.92;;;5.10;99.90;;;;;;5072289;28;20175;-70
2023/01/15 06:18:12;;;;;;;18.83;1.17;;;5.10;99.90;;;;;;5073459;28;20048;-73
2023/01/15 06:20:39;;;;;;;24.00;1.20;;;5.10;99.90;;;;;;5072162;28;20059;-71
2023/01/15 06:23:05;;;;;;;20.13;1.02;;;5.20;99.90;;;;;;5073180;28;20393;-70
2023/01/15 06:25:37;;;;;;;22.23;1.50;;;5.40;99.90;;;;;;5071699;28;20044;-71
2023/01/15 06:28:04;;;;;;;19.95;1.17;;;5.40;99.90;;;;;;5071809;28;20044;-70
2023/01/15 06:30:30;;;;;;;;;;;5.30;99.90;;;;;;5072601;28;20084;-71
2023/01/15 06:32:56;;;;;;;16.73;1.55;;;5.30;99.90;;;;;;5055403;28;19921;-71
2023/01/15 06:35:21;;;;;;;14.00;1.00;;;5.30;99.90;;;;;;5072642;28;20045;-70
2023/01/15 06:37:50;;;;;;;32.40;2.40;;;5.30;99.90;;;;;;5071764;28;20040;-71
2023/01/15 06:40:16;;;;;;;18.80;1.83;;;5.30;99.90;;;;;;5055239;28;20045;-71
2023/01/15 06:48:17;;;;;;;17.98;1.20;;;5.20;99.90;;;;;;5072845;28;20048;-72
2023/01/15 06:50:43;;;;;;;20.02;1.55;;;5.10;99.90;;;;;;5071877;28;20061;-71
2023/01/15 06:53:09;;;;;;;13.55;1.73;;;5.10;99.90;;;;;;5071883;28;20435;-72
2023/01/15 06:55:35;;;;;;;21.13;1.38;;;5.10;99.90;;;;;;5073446;28;20094;-71
2023/01/15 06:58:02;;;;;;;27.13;1.23;;;5.10;99.90;;;;;;5075396;28;20496;-70
2023/01/15 07:00:28;;;;;;;20.05;1.45;;;5.10;99.90;;;;;;5076438;28;20148;-71
2023/01/15 07:02:54;;;;;;;18.42;1.13;;;5.00;99.90;;;;;;5058893;28;20166;-71
2023/01/15 07:05:19;;;;;;;21.70;1.15;;;5.00;99.90;;;;;;5075072;28;20510;-71
2023/01/15 07:07:45;;;;;;;27.55;1.30;;;4.90;99.90;;;;;;5076427;28;20120;-71
2023/01/15 07:10:11;;;;;;;18.30;1.50;;;4.80;99.90;;;;;;5076366;28;20473;-70
2023/01/15 07:12:37;;;;;;;30.92;1.88;;;4.80;99.90;;;;;;5075049;28;20090;-70
2023/01/15 07:15:03;;;;;;;16.33;1.10;;;4.70;99.90;;;;;;5076242;28;20049;-71
2023/01/15 07:17:29;;;;;;;20.45;1.35;;;4.80;99.90;;;;;;5076321;28;20060;-71
2023/01/15 07:19:54;;;;;;;21.38;1.20;;;4.80;99.90;;;;;;5042736;28;20048;-70
2023/01/15 07:22:20;;;;;;;24.63;1.92;;;4.60;99.90;;;;;;5075063;28;20041;-72
2023/01/15 07:24:46;;;;;;;16.77;1.17;;;4.70;99.90;;;;;;5075305;28;20388;-70
2023/01/15 07:27:11;;;;;;;11.13;1.65;;;4.70;99.90;;;;;;5075310;28;20051;-71
2023/01/15 07:29:37;;;;;;;26.63;3.53;;;4.70;99.90;;;;;;5075900;28;20131;-69
2023/01/15 07:32:03;;;;;;;16.10;1.95;;;4.80;99.90;;;;;;5074786;28;20053;-70
2023/01/15 07:34:29;;;;;;;26.05;2.20;;;4.70;99.90;;;;;;5058344;28;20119;-72
2023/01/15 07:36:55;;;;;;;7.85;1.13;;;4.70;99.90;;;;;;5075879;28;20199;-71
2023/01/15 07:39:20;;;;;;;13.93;1.35;;;4.70;99.90;;;;;;5076224;28;20040;-72
2023/01/15 07:50:12;;;;;;;18.88;2.08;;;4.60;99.90;;;;;;5075659;28;20485;-71
2023/01/15 07:52:38;;;;;;;26.48;1.90;;;4.60;99.90;;;;;;5074730;28;20084;-72
2023/01/15 07:55:07;;;;;;;15.73;1.08;;;4.60;99.90;;;;;;5109041;28;20090;-72
2023/01/15 07:57:33;;;;;;;28.58;3.03;;;4.60;99.90;;;;;;5074808;28;20047;-72
2023/01/15 07:59:59;;;;;;;22.05;1.98;;;4.60;99.90;;;;;;5074595;28;20048;-70
2023/01/15 08:02:25;;;;;;;22.45;2.13;;;4.60;99.90;;;;;;5074677;28;20098;-73
2023/01/15 08:04:51;;;;;;;22.60;1.60;;;4.60;99.90;;;;;;5076486;28;20040;-70
2023/01/15 08:07:17;;;;;;;23.50;1.42;;;4.60;99.90;;;;;;5092671;28;20044;-71
2023/01/15 08:09:42;;;;;;;21.05;1.95;;;4.60;99.90;;;;;;5074858;28;20508;-71
2023/01/15 08:15:13;;;;;;;25.48;1.15;;;4.60;99.90;;;;;;5076322;28;20053;-70
2023/01/15 08:17:41;;;;;;;13.20;1.40;;;4.60;99.90;;;;;;5075204;28;20063;-70
2023/01/15 08:20:14;;;;;;;18.40;1.10;;;4.60;99.90;;;;;;5075675;28;20040;-73
2023/01/15 08:22:41;;;;;;;15.35;1.00;;;4.60;99.90;;;;;;5074862;28;20074;-72
2023/01/15 08:25:08;;;;;;;15.35;0.85;;;4.60;99.90;;;;;;5075286;28;20045;-71
2023/01/15 08:27:34;;;;;;;;;;;4.60;99.90;;;;;;5076065;28;20427;-71
2023/01/15 08:30:00;;;;;;;27.53;2.13;;;4.60;99.90;;;;;;5058226;28;19930;-71
2023/01/15 08:32:26;;;;;;;12.05;1.20;;;4.70;99.90;;;;;;5074677;28;20139;-71
2023/01/15 08:34:51;;;;;;;15.73;1.23;;;4.70;99.90;;;;;;5076009;28;20040;-70
2023/01/15 08:37:17;;;;;;;16.98;1.40;;;4.70;99.90;;;;;;5058448;28;20052;-71
2023/01/15 08:39:44;;;;;;;23.23;1.02;;;4.80;99.90;;;;;;5075313;28;20083;-70
2023/01/15 08:42:10;;;;;;;15.05;1.45;;;4.80;99.90;;;;;;5057200;28;20045;-71
2023/01/15 08:44:36;;;;;;;11.52;0.73;;;4.90;99.90;;;;;;5074309;28;20053;-70
2023/01/15 08:47:01;;;;;;;20.42;1.98;;;5.00;99.90;;;;;;5074831;28;20083;-70
2023/01/15 08:49:27;;;;;;;20.05;1.35;;;5.10;99.90;;;;;;5074441;28;20461;-72
2023/01/15 08:51:53;;;;;;;24.20;3.55;;;5.20;99.90;;;;;;5073572;28;20048;-71
2023/01/15 08:54:20;;;;;;;21.02;1.38;;;5.30;99.90;;;;;;5072992;28;20041;-72
2023/01/15 08:56:46;;;;;;;;;;;5.30;99.90;;;;;;5057012;28;20048;-70
2023/01/15 08:59:12;;;;;;;15.52;1.38;;;5.30;99.90;;;;;;5074260;28;19920;-70
2023/01/15 09:01:39;;;;;;;13.32;0.98;;;5.20;99.90;;;;;;5056633;28;20127;-73
2023/01/15 09:04:05;;;;;;;18.73;0.80;;;5.00;99.90;;;;;;5074247;28;20159;-70
2023/01/15 09:06:31;;;;;;;9.93;1.08;;;4.80;99.90;;;;;;5073014;28;20048;-73
2023/01/15 09:09:00;;;;;;;9.57;0.57;;;4.70;99.90;;;;;;5056528;28;20058;-74
2023/01/15 09:11:27;;;;;;;12.50;0.57;;;4.50;99.90;;;;;;5056403;28;20493;-74
2023/01/15 09:13:53;;;;;;;15.13;0.65;;;4.30;99.90;;;;;;5073134;28;20047;-72
2023/01/15 09:16:19;;;;;;;13.60;1.00;;;4.20;99.90;;;;;;5056064;28;20057;-71
2023/01/15 09:18:45;;;;;;;14.38;0.80;;;4.00;99.90;;;;;;5072425;28;20470;-70
2023/01/15 09:21:11;;;;;;;19.63;1.10;;;3.80;99.90;;;;;;5055291;28;20067;-71
2023/01/15 09:23:37;;;;;;;15.88;1.65;;;3.80;99.90;;;;;;5073814;28;20044;-71
2023/01/15 09:26:05;;;;;;;21.38;1.23;;;3.70;99.90;;;;;;5072825;28;20048;-70
2023/01/15 09:28:32;;;;;;;19.92;1.80;;;3.70;99.90;;;;;;5056201;28;20555;-70
2023/01/15 09:30:58;;;;;;;17.33;0.93;;;3.80;99.90;;;;;;5072606;28;20054;-70
2023/01/15 09:33:23;;;;;;;22.63;1.45;;;3.80;99.90;;;;;;5055648;28;20471;-72
2023/01/15 09:35:50;;;;;;;16.98;2.03;;;3.80;99.90;;;;;;5055829;28;20156;-70
2023/01/15 09:38:18;;;;;;;16.27;1.75;;;3.90;99.90;;;;;;5056642;28;20381;-70
2023/01/15 09:40:56;;;;;;;18.65;1.52;;;4.00;99.90;;;;;;5073358;28;20048;-71
2023/01/15 09:43:44;;;;;;;24.20;1.00;;;4.10;99.90;;;;;;5072193;28;20048;-73
2023/01/15 09:46:24;;;;;;;24.55;3.10;;;4.00;99.90;;;;;;5073827;28;20052;-72
2023/01/15 09:49:06;;;;;;;15.73;1.50;;;4.10;99.90;;;;;;5072129;28;20131;-72
2023/01/15 09:51:58;;;;;;;15.30;1.58;;;4.20;99.90;;;;;;5073375;28;20128;-72
2023/01/15 09:54:44;;;;;;;21.63;0.98;;;4.20;99.90;;;;;;5072337;28;20052;-72
2023/01/15 09:57:13;;;;;;;8.93;0.75;;;4.30;99.90;;;;;;5072931;28;20388;-72
2023/01/15 09:59:45;;;;;;;23.63;1.00;;;4.30;99.90;;;;;;5073363;28;20128;-72
2023/01/15 10:02:28;;;;;;;20.15;1.20;;;4.30;99.90;;;;;;5074486;28;20044;-72
2023/01/15 10:05:20;;;;;;;16.13;1.15;;;4.20;99.90;;;;;;5073174;28;20044;-73
2023/01/15 10:08:11;;;;;;;12.82;2.03;;;4.30;99.90;;;;;;5087899;28;20073;-72
2023/01/15 10:10:58;;;;;;;7.22;1.13;;;4.30;99.90;;;;;;5056710;28;20055;-71
2023/01/15 10:13:48;;;;;;;8.90;0.90;;;4.40;99.90;;;;;;5073159;28;20132;-71
2023/01/15 10:16:30;;;;;;;13.60;0.85;;;4.40;99.90;;;;;;5073810;28;20056;-72
2023/01/15 10:18:57;;;;;;;16.45;1.10;;;4.50;99.90;;;;;;5073181;28;20051;-72
2023/01/15 10:21:53;;;;;;;17.55;1.25;;;4.60;99.90;;;;;;5074961;28;20066;-73
2023/01/15 10:24:51;;;;;;;23.25;2.05;;;4.70;99.90;;;;;;5056096;28;20502;-72
2023/01/15 10:27:21;;;;;;;13.07;1.42;;;4.70;99.90;;;;;;5073810;28;20056;-71
2023/01/15 10:30:12;;;;;;;22.95;2.75;;;4.70;99.90;;;;;;5071814;28;20071;-72
2023/01/15 10:32:54;;;;;;;20.30;1.05;;;4.70;99.90;;;;;;5076784;28;20104;-72
2023/01/15 10:35:36;;;;;;;21.98;1.27;;;4.70;99.90;;;;;;5076767;28;20066;-71
2023/01/15 10:38:14;;;;;;;16.02;2.30;;;4.70;99.90;;;;;;5076618;28;20507;-72
2023/01/15 10:40:42;;;;;;;15.88;1.00;;;4.80;99.90;;;;;;5059735;28;20489;-71
2023/01/15 10:43:17;;;;;;;13.20;1.02;;;4.80;99.90;;;;;;5075683;28;20048;-72
2023/01/15 10:45:46;;;;;;;24.95;1.80;;;4.90;99.90;;;;;;5075657;28;20048;-73
2023/01/15 10:48:29;;;;;;;23.20;1.13;;;4.80;99.90;;;;;;5076700;28;20040;-73
2023/01/15 10:50:58;;;;;;;34.10;1.80;;;4.80;99.90;;;;;;5076202;28;20055;-73
2023/01/15 10:53:38;;;;;;;18.33;1.30;;;4.90;99.90;;;;;;5076864;28;20075;-73
2023/01/15 10:56:28;;;;;;;15.32;1.02;;;5.00;99.90;;;;;;5059207;28;20051;-73
2023/01/15 10:59:07;;;;;;;22.85;2.17;;;5.00;99.90;;;;;;5075900;28;20048;-72
2023/01/15 11:01:33;;;;;;;13.57;1.10;;;5.20;99.90;;;;;;5077610;28;20451;-72
2023/01/15 11:03:59;;;;;;;27.73;2.00;;;5.20;99.90;;;;;;5076283;28;20049;-72
2023/01/15 11:06:25;;;;;;;18.63;1.33;;;5.30;99.90;;;;;;5076183;28;20051;-73
2023/01/15 11:08:57;;;;;;;22.45;1.40;;;5.30;99.90;;;;;;5075460;28;20107;-71
2023/01/15 11:19:40;;;;;;;9.63;1.20;;;5.30;99.90;;;;;;5075953;28;20060;-71
2023/01/15 11:22:08;;;;;;;14.13;2.10;;;5.30;99.90;;;;;;5075791;28;20102;-73
2023/01/15 11:24:57;;;;;;;;;;;5.30;99.90;;;;;;5075627;28;20049;-73
2023/01/15 11:27:29;;;;;;;16.58;1.02;;;5.40;99.90;;;;;;5070418;28;19920;-73
2023/01/15 11:29:57;;;;;;;17.92;2.97;;;5.50;99.90;;;;;;5076056;28;20048;-73
2023/01/15 11:32:32;;;;;;;21.85;1.35;;;5.50;99.90;;;;;;5074916;28;20080;-72
2023/01/15 11:35:13;;;;;;;23.08;1.02;;;5.50;99.90;;;;;;5058264;28;20041;-73
2023/01/15 11:37:39;;;;;;;12.55;1.50;;;5.60;99.90;;;;;;5058699;28;20056;-72
2023/01/15 11:40:15;;;;;;;21.45;1.02;;;5.80;99.90;;;;;;5109699;28;20194;-74
2023/01/15 11:51:06;;;;;;;19.23;1.23;;;6.10;99.90;;;;;;5076438;28;20131;-72
2023/01/15 11:53:36;;;;;;;23.63;1.45;;;6.20;99.90;;;;;;5075733;28;20121;-72
2023/01/15 11:56:06;;;;;;;18.40;1.77;;;6.20;99.90;;;;;;5108393;28;20040;-73
2023/01/15 11:58:38;;;;;;;13.45;1.30;;;6.20;99.90;;;;;;5057736;28;20049;-72
2023/01/15 12:01:04;;;;;;;25.55;1.92;;;6.10;99.90;;;;;;5074450;28;20047;-72
2023/01/15 12:03:35;;;;;;;19.20;1.45;;;6.10;99.90;;;;;;5074603;28;20468;-74
2023/01/15 12:06:19;;;;;;;20.95;1.55;;;6.20;99.90;;;;;;5075283;28;20461;-74
2023/01/15 12:08:58;;;;;;;18.75;0.98;;;6.20;99.90;;;;;;5058007;28;20036;-72
2023/01/15 12:11:54;;;;;;;22.75;1.67;;;6.20;99.90;;;;;;5073964;28;20124;-72
2023/01/15 12:14:38;;;;;;;22.65;2.28;;;6.30;99.90;;;;;;5073884;28;20166;-73
2023/01/15 12:17:17;;;;;;;14.40;0.80;;;6.30;99.90;;;;;;5073760;28;20057;-72
2023/01/15 12:20:01;;;;;;;17.63;1.83;;;6.40;99.90;;;;;;5074129;28;20056;-74
2023/01/15 12:22:48;;;;;;;18.70;1.27;;;6.40;99.90;;;;;;5075825;28;20369;-72
2023/01/15 12:25:35;;;;;;;21.08;1.27;;;6.30;99.90;;;;;;5073814;28;20076;-74
2023/01/15 12:28:12;;;;;;;16.67;1.70;;;6.20;99.90;;;;;;5074842;28;20052;-73
2023/01/15 12:31:07;;;;;;;14.43;1.40;;;6.30;99.90;;;;;;5107550;28;20131;-73
2023/01/15 12:34:00;;;;;;;18.05;1.52;;;6.30;99.90;;;;;;5071207;28;20059;-73
2023/01/15 12:36:39;;;;;;;12.32;1.30;;;6.40;99.90;;;;;;5072843;28;20469;-72
2023/01/15 12:39:20;;;;;;;17.90;1.38;;;6.30;99.90;;;;;;5057645;28;20053;-74
2023/01/15 12:44:59;;;;;;;17.55;1.80;;;6.30;99.90;;;;;;5074510;28;20501;-73
2023/01/15 12:47:35;;;;;;;19.42;1.42;;;6.20;99.90;;;;;;5073602;28;20048;-73
2023/01/15 12:50:45;;;;;;;16.05;1.65;;;6.20;99.90;;;;;;5074533;28;20095;-73
2023/01/15 12:53:29;;;;;;;18.65;1.40;;;6.20;99.90;;;;;;5074859;28;20071;-74
2023/01/15 12:55:58;;;;;;;23.70;1.85;;;6.30;99.90;;;;;;5073560;28;20041;-73
2023/01/15 12:58:32;;;;;;;20.95;1.67;;;6.20;99.90;;;;;;5057359;28;20051;-72
2023/01/15 13:01:09;;;;;;;17.30;2.05;;;6.10;99.90;;;;;;5075184;28;20384;-72
2023/01/15 13:04:09;;;;;;;21.83;1.77;;;6.00;99.90;;;;;;5075413;28;20083;-72
2023/01/15 13:06:42;;;;;;;22.35;1.92;;;5.90;99.90;;;;;;5072460;28;20064;-71
2023/01/15 13:09:43;;;;;;;16.35;1.20;;;5.80;99.90;;;;;;5072861;28;20052;-72
2023/01/15 13:12:16;;;;;;;15.52;2.15;;;5.80;99.90;;;;;;5047350;28;20056;-70
2023/01/15 13:14:42;;;;;;;17.20;1.33;;;5.80;99.90;;;;;;5072940;28;20048;-71
2023/01/15 13:17:24;;;;;;;16.27;1.58;;;5.90;99.90;;;;;;5055840;28;20060;-70
2023/01/15 13:20:26;;;;;;;23.38;2.10;;;5.80;99.90;;;;;;5073653;28;20135;-73
2023/01/15 13:23:07;;;;;;;23.30;2.25;;;6.00;99.90;;;;;;5073697;28;20488;-71
2023/01/15 13:25:33;;;;;;;21.77;1.63;;;6.30;99.90;;;;;;5072423;28;20053;-72
2023/01/15 13:28:17;;;;;;;16.13;1.63;;;6.30;99.90;;;;;;5074295;28;20045;-71
2023/01/15 13:31:07;;;;;;;15.70;1.25;;;6.40;99.90;;;;;;5055797;28;20098;-72
2023/01/15 13:33:51;;;;;;;14.00;1.33;;;6.50;99.90;;;;;;5074202;28;20054;-72
2023/01/15 13:36:31;;;;;;;23.63;2.17;;;6.50;99.90;;;;;;5072362;28;20044;-70
2023/01/15 13:39:02;;;;;;;23.92;1.88;;;6.60;99.90;;;;;;5072544;28;20056;-72
2023/01/15 13:44:18;;;;;;;20.48;2.38;;;6.60;99.90;;;;;;5073197;28;20050;-72
2023/01/15 13:46:57;;;;;;;20.35;2.05;;;6.70;99.90;;;;;;5072392;28;20049;-73
2023/01/15 13:49:29;;;;;;;19.35;2.30;;;6.70;99.90;;;;;;5074070;28;20049;-73
2023/01/15 13:51:57;;;;;;;22.63;2.28;;;6.80;99.90;;;;;;5073230;28;20362;-72
2023/01/15 13:54:27;;;;;;;13.30;2.13;;;6.80;99.90;;;;;;5055874;28;20059;-71
2023/01/15 13:56:52;;;;;;;14.32;2.25;;;6.80;99.90;;;;;;5072272;28;20079;-71
2023/01/15 13:59:40;;;;;;;20.30;1.83;;;6.80;99.90;;;;;;5072297;28;20116;-72
2023/01/15 14:02:30;;;;;;;20.55;2.10;;;6.80;99.90;;;;;;5072034;28;20048;-70